Time;durP1;ratioP1;P1;durP2;ratioP2;P2;SDS_P1;SDS_P2;PMS_P1;PMS_P2;Temp;Humidity;BMP_temperature;BMP_pressure;BME280_temperature;BME280_humidity;BME280_pressure;Samples;Min_cycle;Max_cycle;Signal;HPM_P1;HPM_P2
2023/11/19 01:06:08;;;;;;;14.65;2.33;;;;;;;10.46;100.00;98823.69;5366167;23;20131;-94
2023/11/19 01:08:35;;;;;;;25.88;4.10;;;;;;;10.48;100.00;98819.03;4897709;29;20044;-96
2023/11/19 01:11:22;;;;;;;23.45;4.22;;;;;;;10.53;100.00;98814.03;4910178;23;20048;-96
2023/11/19 01:13:52;;;;;;;17.98;3.38;;;;;;;10.49;100.00;98818.06;4893753;29;20056;-96
2023/11/19 01:16:18;;;;;;;22.98;3.95;;;;;;;10.54;100.00;98823.56;4884744;29;20044;-95
2023/11/19 01:18:46;;;;;;;22.80;4.20;;;;;;;10.60;100.00;98818.56;4885617;29;20036;-95
2023/11/19 01:21:14;;;;;;;24.58;3.35;;;;;;;10.59;100.00;98812.47;4897648;29;20495;-94
2023/11/19 01:23:43;;;;;;;16.80;2.78;;;;;;;10.57;100.00;98803.91;4877828;29;20055;-95
2023/11/19 01:26:13;;;;;;;17.30;2.90;;;;;;;10.67;100.00;98814.19;4883244;29;20535;-95
2023/11/19 01:28:39;;;;;;;18.60;3.63;;;;;;;10.63;100.00;98803.19;4881860;29;20482;-96
2023/11/19 01:31:09;;;;;;;16.55;3.20;;;;;;;10.63;100.00;98805.81;4913323;29;20054;-96
2023/11/19 01:33:40;;;;;;;19.00;3.28;;;;;;;10.66;100.00;98794.03;4885198;29;20048;-96
2023/11/19 01:36:06;;;;;;;16.33;2.95;;;;;;;10.60;100.00;98785.06;4899924;29;20029;-96
2023/11/19 01:38:35;;;;;;;12.55;2.53;;;;;;;10.62;100.00;98784.88;4892775;29;20036;-96
2023/11/19 01:41:03;;;;;;;19.80;2.80;;;;;;;10.60;100.00;98790.34;4899790;29;20029;-96
2023/11/19 01:43:34;;;;;;;17.98;2.85;;;;;;;10.68;100.00;98784.13;4887401;29;20068;-96
2023/11/19 01:46:01;;;;;;;15.85;3.42;;;;;;;10.61;100.00;98776.09;4894406;29;20068;-96
2023/11/19 01:48:27;;;;;;;18.30;2.92;;;;;;;10.59;100.00;98778.09;4870481;29;20064;-96
2023/11/19 01:50:53;;;;;;;18.83;2.53;;;;;;;10.57;100.00;98774.84;4882270;29;20493;-96
2023/11/19 01:53:20;;;;;;;15.30;2.33;;;;;;;10.59;100.00;98772.03;4893774;29;20044;-96
2023/11/19 01:55:47;;;;;;;19.58;3.58;;;;;;;10.56;100.00;98762.63;4878160;29;20505;-96
2023/11/19 01:58:13;;;;;;;16.73;2.60;;;;;;;10.55;100.00;98763.66;4891376;29;20036;-96
2023/11/19 02:00:38;;;;;;;18.13;2.50;;;;;;;10.58;100.00;98768.56;4882961;29;20039;-96
2023/11/19 02:03:09;;;;;;;18.38;2.67;;;;;;;10.60;100.00;98769.19;4881160;29;20482;-96
2023/11/19 02:05:35;;;;;;;22.85;3.10;;;;;;;10.58;100.00;98762.44;4871020;29;20034;-96
2023/11/19 02:08:01;;;;;;;20.85;3.40;;;;;;;10.57;100.00;98764.28;4865497;29;20036;-96
2023/11/19 02:10:27;;;;;;;17.05;2.33;;;;;;;10.56;100.00;98761.84;4900574;29;20036;-96
2023/11/19 02:12:56;;;;;;;18.10;2.75;;;;;;;10.56;100.00;98767.13;4877928;29;20024;-96
2023/11/19 02:15:24;;;;;;;19.70;2.25;;;;;;;10.48;100.00;98760.13;4872325;29;20065;-96
2023/11/19 02:18:15;;;;;;;12.95;2.40;;;;;;;10.53;100.00;98755.91;4887679;29;20198;-96
2023/11/19 02:20:44;;;;;;;15.30;2.20;;;;;;;10.49;100.00;98759.94;4881716;29;20104;-96
2023/11/19 02:23:11;;;;;;;22.67;2.88;;;;;;;10.41;100.00;98755.56;4869583;29;20036;-96
2023/11/19 02:25:40;;;;;;;14.57;2.83;;;;;;;10.49;100.00;98759.94;4900559;29;20028;-95
2023/11/19 02:28:07;;;;;;;12.52;2.03;;;;;;;10.46;100.00;98754.16;4873310;29;20032;-96
2023/11/19 02:30:33;;;;;;;16.02;2.35;;;;;;;10.46;100.00;98748.88;4901635;29;20060;-96
2023/11/19 02:33:05;;;;;;;13.55;2.25;;;;;;;10.40;100.00;98748.63;4886495;29;20036;-96
2023/11/19 02:35:51;;;;;;;14.73;2.53;;;;;;;10.40;100.00;98745.16;4886228;29;20036;-96
2023/11/19 02:38:21;;;;;;;10.93;2.20;;;;;;;10.40;100.00;98745.16;4868838;29;20148;-96
2023/11/19 02:40:49;;;;;;;18.33;2.95;;;;;;;10.47;100.00;98753.19;4876955;29;20040;-96
2023/11/19 02:43:15;;;;;;;17.58;2.88;;;;;;;10.45;100.00;98745.41;4894873;29;20025;-88
2023/11/19 02:45:53;;;;;;;13.85;2.33;;;;;;;10.48;100.00;98731.88;4912869;29;20040;-96
2023/11/19 02:48:21;;;;;;;14.73;2.40;;;;;;;10.54;100.00;98744.31;4902544;29;20031;-96
2023/11/19 02:50:48;;;;;;;17.15;2.25;;;;;;;10.54;100.00;98746.16;4871332;29;20036;-95
2023/11/19 02:53:13;;;;;;;10.88;2.20;;;;;;;10.52;100.00;98740.25;4873531;29;20035;-96
2023/11/19 02:55:40;;;;;;;15.10;1.65;;;;;;;10.53;100.00;98734.78;4869910;29;20072;-96
2023/11/19 02:58:24;;;;;;;19.40;2.38;;;;;;;10.57;100.00;98732.59;4902106;29;20073;-96
2023/11/19 03:01:09;;;;;;;14.77;1.77;;;;;;;10.52;100.00;98743.72;4897939;29;20084;-96
2023/11/19 03:03:38;;;;;;;12.27;2.10;;;;;;;10.57;100.00;98732.59;4893059;29;20025;-96
2023/11/19 03:06:05;;;;;;;13.73;3.08;;;;;;;10.59;100.00;98737.69;4884963;29;20082;-95
2023/11/19 03:08:31;;;;;;;10.32;1.63;;;;;;;10.51;100.00;98735.97;4902153;29;20043;-96
2023/11/19 03:10:56;;;;;;;16.92;3.30;;;;;;;10.57;100.00;98737.88;4877932;29;20074;-96
2023/11/19 03:13:22;;;;;;;11.20;2.33;;;;;;;10.57;100.00;98735.22;4863008;29;20052;-96
2023/11/19 03:15:48;;;;;;;12.40;2.05;;;;;;;10.57;100.00;98731.75;4865691;29;20045;-96
2023/11/19 03:18:14;;;;;;;11.40;2.13;;;;;;;10.58;100.00;98736.84;4868914;29;20040;-95
2023/11/19 03:20:40;;;;;;;14.43;2.78;;;;;;;10.53;100.00;98718.09;4874911;29;20574;-96
2023/11/19 03:23:06;;;;;;;13.98;2.17;;;;;;;10.58;100.00;98715.72;4875558;29;20045;-96
2023/11/19 03:25:36;;;;;;;12.57;2.30;;;;;;;10.57;100.00;98721.19;4885121;29;20451;-96
2023/11/19 03:28:03;;;;;;;12.80;2.50;;;;;;;10.54;100.00;98727.69;4909031;29;20039;-96
2023/11/19 03:30:30;;;;;;;16.98;2.40;;;;;;;10.54;100.00;98717.91;4885883;29;20071;-95
2023/11/19 03:32:57;;;;;;;17.33;3.05;;;;;;;10.60;100.00;98728.75;4871377;29;20048;-96
2023/11/19 03:35:24;;;;;;;12.55;2.63;;;;;;;10.55;100.00;98721.38;4886532;29;20051;-96
2023/11/19 03:37:51;;;;;;;18.50;2.53;;;;;;;10.52;100.00;98713.81;4881023;29;20047;-96
2023/11/19 03:40:18;;;;;;;11.65;2.08;;;;;;;10.48;100.00;98710.72;4870862;29;20048;-96
2023/11/19 03:42:45;;;;;;;13.60;2.15;;;;;;;10.49;100.00;98707.09;4875348;29;20392;-96
2023/11/19 03:45:11;;;;;;;15.50;2.33;;;;;;;10.46;100.00;98706.63;4868335;29;20052;-96
2023/11/19 03:47:38;;;;;;;20.20;2.63;;;;;;;10.47;100.00;98713.56;4920425;29;20032;-96
2023/11/19 03:50:05;;;;;;;18.52;2.72;;;;;;;10.46;100.00;98707.47;4900271;29;20040;-96
2023/11/19 03:52:31;;;;;;;14.63;1.85;;;;;;;10.42;100.00;98709.63;4882165;29;20055;-96
2023/11/19 03:54:57;;;;;;;14.18;2.42;;;;;;;10.40;100.00;98700.28;4883810;29;20028;-96
2023/11/19 03:57:23;;;;;;;16.05;1.83;;;;;;;10.45;100.00;98700.50;4911768;29;20044;-96
2023/11/19 03:59:49;;;;;;;10.38;2.22;;;;;;;10.41;100.00;98694.81;4904856;29;20111;-92
2023/11/19 04:02:15;;;;;;;21.23;2.55;;;;;;;10.48;100.00;98709.94;4873959;29;20044;-95
2023/11/19 04:04:41;;;;;;;13.07;2.03;;;;;;;10.43;100.00;98692.78;4881259;29;20414;-96
2023/11/19 04:07:08;;;;;;;13.30;2.08;;;;;;;10.41;100.00;98691.34;4867250;29;20044;-96
2023/11/19 04:09:34;;;;;;;16.25;2.10;;;;;;;10.36;100.00;98683.97;4904132;29;20044;-96
2023/11/19 04:12:00;;;;;;;12.40;2.00;;;;;;;10.46;100.00;98690.78;4905295;29;20580;-96
2023/11/19 04:14:40;;;;;;;15.77;1.88;;;;;;;10.41;100.00;98686.06;4892138;29;20076;-96
2023/11/19 04:17:06;;;;;;;14.07;1.95;;;;;;;10.47;100.00;98687.16;4876374;29;20057;-96
2023/11/19 04:19:32;;;;;;;14.55;3.03;;;;;;;10.45;100.00;98682.03;4895452;29;20504;-96
2023/11/19 04:21:58;;;;;;;10.80;1.95;;;;;;;10.48;100.00;98678.22;4885865;29;20047;-96
2023/11/19 04:24:24;;;;;;;14.80;1.83;;;;;;;10.46;100.00;98673.13;4887886;29;20032;-96
2023/11/19 04:26:53;;;;;;;15.65;1.85;;;;;;;10.53;100.00;98667.91;4890699;29;20052;-96
2023/11/19 04:29:19;;;;;;;15.20;1.50;;;;;;;10.48;100.00;98670.31;4888027;29;20032;-96
2023/11/19 04:31:46;;;;;;;10.32;2.17;;;;;;;10.46;100.00;98669.63;4873471;29;20032;-96
2023/11/19 04:34:23;;;;;;;12.70;2.03;;;;;;;10.51;100.00;98659.38;4889078;29;20044;-96
2023/11/19 04:36:49;;;;;;;11.30;1.63;;;;;;;10.51;100.00;98665.44;4887489;29;20345;-96
2023/11/19 04:39:15;;;;;;;11.55;1.60;;;;;;;10.53;100.00;98671.38;4903381;29;20039;-96
2023/11/19 04:41:54;;;;;;;11.50;1.85;;;;;;;10.58;100.00;98662.06;4890422;29;20106;-96
2023/11/19 04:44:20;;;;;;;17.27;2.15;;;;;;;10.52;100.00;98661.00;4868315;29;20715;-95
2023/11/19 04:46:46;;;;;;;12.18;1.67;;;;;;;10.53;100.00;98654.69;4877273;29;20040;-96
2023/11/19 04:49:14;;;;;;;10.85;1.55;;;;;;;10.52;100.00;98653.91;4900640;29;20056;-94
2023/11/19 04:51:41;;;;;;;11.30;1.58;;;;;;;10.49;100.00;98651.63;4879240;29;20040;-96
2023/11/19 04:54:08;;;;;;;8.45;1.33;;;;;;;10.48;100.00;98644.69;4887844;29;20040;-96
2023/11/19 04:56:36;;;;;;;7.88;1.50;;;;;;;10.45;100.00;98644.25;4885561;29;20032;-96
2023/11/19 04:59:02;;;;;;;12.05;1.30;;;;;;;10.44;100.00;98635.50;4864923;29;20020;-96
2023/11/19 05:01:30;;;;;;;8.32;1.33;;;;;;;10.43;100.00;98645.22;4898580;29;20044;-96
2023/11/19 05:03:59;;;;;;;10.15;1.48;;;;;;;10.40;100.00;98631.59;4899941;29;20040;-96
2023/11/19 05:06:29;;;;;;;6.68;1.60;;;;;;;10.46;100.00;98646.72;4886154;29;20104;-96
2023/11/19 05:09:03;;;;;;;5.38;1.00;;;;;;;10.47;100.00;98637.78;4897626;29;20041;-96
2023/11/19 05:11:29;;;;;;;7.82;1.00;;;;;;;10.38;100.00;98636.25;4882709;29;20045;-96
2023/11/19 05:13:54;;;;;;;12.07;1.80;;;;;;;10.40;100.00;98637.69;4901855;29;20036;-96
2023/11/19 05:16:21;;;;;;;12.95;1.90;;;;;;;10.38;100.00;98637.03;4885240;29;20043;-96
2023/11/19 05:18:49;;;;;;;8.50;1.27;;;;;;;10.41;100.00;98641.16;4892535;29;20099;-96
2023/11/19 05:21:15;;;;;;;5.97;1.10;;;;;;;10.39;100.00;98637.88;4886074;29;20122;-94
2023/11/19 05:23:41;;;;;;;10.68;2.35;;;;;;;10.40;100.00;98629.75;4872694;29;20400;-96
2023/11/19 05:26:18;;;;;;;8.88;1.58;;;;;;;10.47;100.00;98635.16;4905803;29;20043;-96
2023/11/19 05:28:44;;;;;;;10.93;1.25;;;;;;;10.37;100.00;98621.38;4886134;29;20064;-96
2023/11/19 05:31:09;;;;;;;9.18;1.27;;;;;;;10.39;100.00;98622.03;4884833;29;20039;-96
2023/11/19 05:33:38;;;;;;;7.85;1.25;;;;;;;10.38;100.00;98620.41;4875508;29;20036;-96
2023/11/19 05:36:05;;;;;;;6.78;0.98;;;;;;;10.42;100.00;98616.38;4894424;29;20063;-96
2023/11/19 05:38:32;;;;;;;6.93;1.27;;;;;;;10.39;100.00;98614.09;4885590;29;20066;-95
2023/11/19 05:40:58;;;;;;;7.70;1.10;;;;;;;10.38;100.00;98623.84;4901679;29;20040;-96
2023/11/19 05:43:23;;;;;;;7.35;1.08;;;;;;;10.41;100.00;98620.03;4866735;29;20051;-96
2023/11/19 05:45:49;;;;;;;8.52;1.30;;;;;;;10.41;100.00;98617.38;4899571;29;20104;-96
2023/11/19 05:48:19;;;;;;;9.88;1.17;;;;;;;10.39;100.00;98614.94;4896080;29;20068;-96
2023/11/19 05:50:47;;;;;;;8.88;1.05;;;;;;;10.39;100.00;98612.28;4899860;29;20130;-96
2023/11/19 05:54:37;;;;;;;8.70;0.88;;;;;;;10.45;100.00;98609.91;5175080;23;20087;-94
2023/11/19 06:35:45;;;;;;;;;;;;;;;;;;;;;
2023/11/19 06:39:54;;;;;;;3.13;0.43;;;;;;;10.61;100.00;98606.19;4819417;29;20041;-95
2023/11/19 06:55:15;;;;;;;4.55;2.63;;;;;;;10.67;100.00;98627.41;4770971;30;20192;-94
2023/11/19 07:03:30;;;;;;;5.05;3.00;;;;;;;10.69;100.00;98611.34;4822022;29;20413;-96
2023/11/19 07:07:56;;;;;;;;;;;;;;;;;;;;;
2023/11/19 07:21:04;;;;;;;;;;;;;;;;;;;;;
2023/11/19 07:25:25;;;;;;;;;;;;;;;;;;;;;
2023/11/19 07:29:12;;;;;;;7.57;6.05;;;;;;;10.88;100.00;98622.25;4720610;30;20045;-96
2023/11/19 07:37:22;;;;;;;13.35;9.77;;;;;;;10.89;100.00;98622.06;4748276;30;20050;-96
2023/11/19 07:41:22;;;;;;;5.10;4.25;;;;;;;10.96;100.00;98638.00;4772760;29;20039;-94
2023/11/19 08:15:15;;;;;;;;;;;;;;;;;;;;;
2023/11/19 08:19:24;;;;;;;;;;;;;;;;;;;;;
2023/11/19 08:23:25;;;;;;;3.38;0.60;;;;;;;11.43;100.00;98697.53;4794899;29;20066;-96
2023/11/19 08:26:51;;;;;;;;;;;;;;;;;;;;;
2023/11/19 08:30:26;;;;;;;8.27;0.85;;;;;;;11.55;100.00;98719.78;4762937;29;20047;-95
2023/11/19 08:34:24;;;;;;;6.88;0.90;;;;;;;11.58;100.00;98721.25;4768185;30;20537;-96
2023/11/19 08:38:22;;;;;;;9.23;1.52;;;;;;;11.58;100.00;98723.88;4751276;30;20051;-94
2023/11/19 08:41:41;;;;;;;4.63;0.57;;;;;;;11.51;100.00;98735.25;4731721;30;20048;-96
2023/11/19 08:44:19;;;;;;;7.82;0.73;;;;;;;11.60;100.00;98727.13;4768901;30;20040;-95
2023/11/19 08:47:59;;;;;;;5.35;1.60;;;;;;;11.60;100.00;98740.38;4753942;30;20095;-95
2023/11/19 08:51:41;;;;;;;;;;;;;;;;;;;;;
2023/11/19 09:06:29;;;;;;;5.38;0.68;;;;;;;11.66;100.00;98781.94;4805935;29;20599;-95
2023/11/19 09:13:34;;;;;;;6.85;0.60;;;;;;;11.63;100.00;98795.56;4792914;29;20046;-95
2023/11/19 09:16:51;;;;;;;4.50;0.55;;;;;;;11.66;100.00;98793.34;4797284;29;20057;-94
2023/11/19 09:19:48;;;;;;;5.10;1.30;;;;;;;11.69;100.00;98805.38;4823345;29;20050;-95
2023/11/19 09:27:13;;;;;;;3.67;1.27;;;;;;;11.67;100.00;98804.75;4802830;29;20883;-95
2023/11/19 09:30:33;;;;;;;3.45;0.50;;;;;;;11.69;100.00;98821.25;4817925;29;20026;-96
2023/11/19 09:33:26;;;;;;;4.90;0.50;;;;;;;11.65;100.00;98804.13;4821978;29;20047;-94
2023/11/19 09:39:08;;;;;;;1.52;0.30;;;;;;;11.71;100.00;98829.00;4819702;29;20050;-96
2023/11/19 09:41:54;;;;;;;2.35;0.52;;;;;;;11.74;100.00;98837.38;4790211;29;20042;-94
2023/11/19 09:44:25;;;;;;;0.98;0.22;;;;;;;11.66;100.00;98834.88;4805882;29;20061;-95
2023/11/19 09:46:53;;;;;;;2.15;0.32;;;;;;;11.74;100.00;98847.13;4821184;29;20045;-94
2023/11/19 09:49:26;;;;;;;0.63;0.20;;;;;;;11.70;100.00;98859.97;4824139;29;20033;-94
2023/11/19 09:51:53;;;;;;;2.88;0.40;;;;;;;11.70;100.00;98862.59;4828050;29;20037;-94
2023/11/19 09:54:22;;;;;;;1.85;0.20;;;;;;;11.79;100.00;98879.16;4825877;29;20069;-95
2023/11/19 09:56:51;;;;;;;1.13;0.40;;;;;;;11.77;100.00;98882.00;4824756;29;20105;-95
2023/11/19 09:59:28;;;;;;;3.85;0.30;;;;;;;11.79;100.00;98890.56;4810398;29;20090;-95
2023/11/19 10:06:44;;;;;;;;;;;;;;;;;;;;;
2023/11/19 10:10:40;;;;;;;1.13;0.30;;;;;;;11.70;100.00;98910.25;4825615;29;20049;-96
2023/11/19 10:18:30;;;;;;;2.58;0.40;;;;;;;11.66;100.00;98927.50;4802768;29;20079;-96
2023/11/19 10:30:26;;;;;;;3.55;0.50;;;;;;;11.59;100.00;98951.28;4880153;29;20059;-96
2023/11/19 10:33:08;;;;;;;4.80;0.85;;;;;;;11.62;100.00;98963.28;4859921;29;20053;-96
2023/11/19 10:35:54;;;;;;;4.32;0.45;;;;;;;11.62;100.00;98958.00;4933769;23;20430;-96
2023/11/19 10:38:22;;;;;;;4.03;0.50;;;;;;;11.59;100.00;98975.09;4923302;29;20028;-96
2023/11/19 10:40:50;;;;;;;2.75;0.45;;;;;;;11.61;100.00;98975.69;4905176;29;20090;-96
2023/11/19 10:43:17;;;;;;;5.57;0.90;;;;;;;11.63;100.00;98979.00;4887027;29;20031;-94
2023/11/19 10:45:43;;;;;;;5.70;0.70;;;;;;;11.60;100.00;98974.06;4930860;29;20036;-96
2023/11/19 10:48:09;;;;;;;2.88;0.40;;;;;;;11.59;100.00;98984.84;4903938;29;20034;-95
2023/11/19 10:50:37;;;;;;;3.88;0.60;;;;;;;11.64;100.00;98988.56;4936237;29;20079;-95
2023/11/19 10:53:04;;;;;;;4.80;0.60;;;;;;;11.69;100.00;98995.13;4883320;29;20032;-96
2023/11/19 10:55:34;;;;;;;9.80;1.00;;;;;;;11.70;100.00;98988.81;4898164;29;20087;-94
2023/11/19 10:58:09;;;;;;;9.98;1.30;;;;;;;11.72;100.00;99013.28;4931734;29;20036;-96
2023/11/19 11:00:45;;;;;;;9.55;1.10;;;;;;;11.75;100.00;99008.41;4954066;29;20082;-95
2023/11/19 11:03:17;;;;;;;7.13;1.13;;;;;;;11.73;100.00;99017.56;4882015;29;20044;-94
2023/11/19 11:05:48;;;;;;;7.88;1.00;;;;;;;11.68;100.00;99019.94;4932841;29;20035;-94
2023/11/19 11:08:15;;;;;;;7.05;0.70;;;;;;;11.72;100.00;99031.81;4923215;29;20035;-96
2023/11/19 11:10:47;;;;;;;9.63;1.23;;;;;;;11.73;100.00;99036.09;4896133;29;20118;-96
2023/11/19 11:13:14;;;;;;;5.70;0.95;;;;;;;11.67;100.00;99032.38;4891251;29;20036;-96
2023/11/19 11:15:42;;;;;;;4.85;0.63;;;;;;;11.64;100.00;99038.03;4913399;29;20070;-95
2023/11/19 11:18:09;;;;;;;4.55;0.80;;;;;;;11.63;100.00;99041.66;4907655;28;20496;-96
2023/11/19 11:20:35;;;;;;;6.72;1.05;;;;;;;11.61;100.00;99052.44;4924071;29;20040;-96
2023/11/19 11:23:33;;;;;;;11.73;1.23;;;;;;;11.65;100.00;99061.66;4911924;29;20032;-96
2023/11/19 11:26:10;;;;;;;7.57;0.98;;;;;;;11.56;100.00;99051.38;4942247;29;20031;-96
2023/11/19 11:28:56;;;;;;;13.30;1.70;;;;;;;11.57;100.00;99061.78;4910507;29;20031;-96
2023/11/19 11:31:49;;;;;;;9.02;1.13;;;;;;;11.62;100.00;99069.97;4909909;29;20040;-96
2023/11/19 11:34:46;;;;;;;12.75;1.88;;;;;;;11.61;100.00;99064.88;4912351;29;20050;-96
2023/11/19 11:37:24;;;;;;;15.57;2.13;;;;;;;11.65;100.00;99071.44;4925324;29;20616;-95
2023/11/19 11:39:50;;;;;;;10.98;1.73;;;;;;;11.63;100.00;99076.06;4916257;29;20035;-96
2023/11/19 11:42:20;;;;;;;20.30;2.33;;;;;;;11.63;100.00;99076.91;4924761;29;20011;-96
2023/11/19 11:45:07;;;;;;;12.02;1.95;;;;;;;11.68;100.00;99083.47;4904156;29;20039;-96
2023/11/19 11:47:46;;;;;;;15.98;3.10;;;;;;;11.69;100.00;99085.13;4944012;29;20048;-96
2023/11/19 11:50:18;;;;;;;13.73;2.45;;;;;;;11.70;100.00;99090.22;4949290;29;20071;-96
2023/11/19 11:52:59;;;;;;;14.15;2.95;;;;;;;11.74;100.00;99093.31;4925901;29;20047;-96
2023/11/19 11:55:59;;;;;;;13.23;2.28;;;;;;;11.72;100.00;99082.91;4931415;29;20134;-96
2023/11/19 11:58:36;;;;;;;14.85;2.50;;;;;;;11.74;100.00;99107.38;4946471;29;20048;-96
2023/11/19 12:01:05;;;;;;;18.67;2.35;;;;;;;11.71;100.00;99081.28;4939317;29;20043;-96
2023/11/19 12:03:32;;;;;;;20.13;3.42;;;;;;;11.82;100.00;99113.59;4937808;29;20050;-96
2023/11/19 12:05:59;;;;;;;18.00;2.15;;;;;;;11.76;100.00;99108.00;4895968;29;20041;-96
2023/11/19 12:08:29;;;;;;;14.88;1.63;;;;;;;11.73;100.00;99092.50;4901481;29;20130;-96
2023/11/19 12:11:21;;;;;;;12.55;1.80;;;;;;;11.73;100.00;99105.75;4936402;29;20028;-96
2023/11/19 12:13:55;;;;;;;10.50;1.85;;;;;;;11.67;100.00;99117.06;4928612;29;20027;-95
2023/11/19 12:16:21;;;;;;;13.90;2.33;;;;;;;11.65;100.00;99105.84;4950810;29;20133;-96
2023/11/19 12:18:47;;;;;;;15.57;1.52;;;;;;;11.70;100.00;99124.63;4900179;29;20044;-95
2023/11/19 12:21:29;;;;;;;11.93;2.30;;;;;;;11.83;100.00;99128.44;4910736;29;20031;-96
2023/11/19 12:24:00;;;;;;;11.93;2.40;;;;;;;11.81;100.00;99117.22;4929022;29;20954;-96
2023/11/19 12:26:35;;;;;;;11.80;1.98;;;;;;;11.86;100.00;99134.19;4924025;29;20124;-96
2023/11/19 12:29:06;;;;;;;14.75;2.08;;;;;;;11.89;100.00;99133.00;4922274;29;20035;-95
2023/11/19 12:31:32;;;;;;;16.17;2.80;;;;;;;11.86;100.00;99144.78;4935384;29;20084;-96
2023/11/19 12:38:31;;;;;;;13.50;1.98;;;;;;;11.77;100.00;99141.41;4925158;29;20084;-96
2023/11/19 12:41:11;;;;;;;14.70;2.50;;;;;;;11.77;100.00;99152.00;4921129;29;20056;-96
2023/11/19 12:43:37;;;;;;;12.75;2.03;;;;;;;11.77;100.00;99159.13;4886971;29;20048;-96
2023/11/19 12:46:36;;;;;;;15.63;2.40;;;;;;;11.72;100.00;99149.06;5031815;23;20048;-96
2023/11/19 12:49:17;;;;;;;16.05;2.55;;;;;;;11.58;100.00;99156.03;4900161;29;20048;-96
2023/11/19 12:52:14;;;;;;;15.45;2.38;;;;;;;11.59;100.00;99168.28;5093345;23;20143;-94
2023/11/19 12:54:51;;;;;;;11.15;1.85;;;;;;;11.53;100.00;99171.66;4886940;29;20063;-95
2023/11/19 12:57:22;;;;;;;15.85;1.50;;;;;;;11.56;100.00;99170.47;4896696;29;20110;-93
2023/11/19 13:00:02;;;;;;;14.32;1.75;;;;;;;11.60;100.00;99175.19;4873617;29;20036;-94
2023/11/19 13:03:35;;;;;;;11.07;1.95;;;;;;;11.63;100.00;99187.22;4915194;29;20041;-96
2023/11/19 13:06:12;;;;;;;21.30;2.60;;;;;;;11.63;100.00;99190.72;4888126;29;20047;-96
2023/11/19 13:08:53;;;;;;;17.83;2.42;;;;;;;11.69;100.00;99197.09;4870909;29;20043;-96
2023/11/19 13:11:36;;;;;;;15.73;3.03;;;;;;;11.69;100.00;99207.69;4870149;29;20051;-92
2023/11/19 13:14:08;;;;;;;14.20;1.92;;;;;;;11.65;100.00;99209.06;4902513;29;20491;-92
2023/11/19 13:16:40;;;;;;;22.98;2.65;;;;;;;11.61;100.00;99215.72;4898352;29;20039;-96
2023/11/19 13:19:08;;;;;;;16.27;1.88;;;;;;;11.63;100.00;99224.28;4902685;29;20045;-96
2023/11/19 13:21:45;;;;;;;8.40;2.20;;;;;;;11.70;100.00;99227.88;4864108;29;20055;-95
2023/11/19 13:24:53;;;;;;;9.35;1.40;;;;;;;11.74;100.00;99237.06;4908757;29;20020;-95
2023/11/19 13:28:05;;;;;;;15.10;2.08;;;;;;;11.71;100.00;99229.50;4915976;29;20047;-96
2023/11/19 13:31:07;;;;;;;12.68;1.27;;;;;;;11.75;100.00;99235.25;4886327;29;20131;-96
2023/11/19 13:34:00;;;;;;;11.00;2.10;;;;;;;11.67;100.00;99225.59;4905270;29;20044;-96
2023/11/19 13:36:53;;;;;;;14.60;1.98;;;;;;;11.60;100.00;99237.88;4904740;29;20084;-96
2023/11/19 13:39:28;;;;;;;;;;;;;;;11.59;100.00;99247.66;4894063;29;20048;-96
2023/11/19 13:42:01;;;;;;;18.48;2.38;;;;;;;11.58;100.00;99248.66;4886394;29;19919;-96
2023/11/19 13:44:30;;;;;;;11.90;2.38;;;;;;;11.59;100.00;99260.06;4885597;29;20044;-96
2023/11/19 13:47:30;;;;;;;14.93;2.40;;;;;;;11.63;100.00;99251.59;4920340;29;20043;-96
2023/11/19 13:50:09;;;;;;;16.20;2.22;;;;;;;11.57;100.00;99252.31;4886034;29;20025;-96
2023/11/19 13:53:00;;;;;;;12.13;2.63;;;;;;;11.50;100.00;99249.56;4881776;29;20029;-96
2023/11/19 13:56:01;;;;;;;15.55;2.30;;;;;;;11.48;100.00;99256.03;4916686;29;20159;-96
2023/11/19 13:58:28;;;;;;;21.80;3.80;;;;;;;11.43;100.00;99250.44;4943451;23;20016;-95
2023/11/19 14:00:54;;;;;;;19.60;3.03;;;;;;;11.46;100.00;99258.03;4913486;29;20044;-95
2023/11/19 14:03:19;;;;;;;15.35;2.72;;;;;;;11.47;100.00;99262.31;4907742;29;20103;-94
2023/11/19 14:06:23;;;;;;;20.30;3.58;;;;;;;11.50;100.00;99246.91;4917585;23;20060;-94
2023/11/19 14:12:12;;;;;;;13.38;2.58;;;;;;;11.43;100.00;99242.53;4879693;29;20054;-94
2023/11/19 14:15:28;;;;;;;14.95;2.42;;;;;;;11.41;100.00;99262.06;4893658;29;20060;-95
2023/11/19 14:18:20;;;;;;;12.65;2.38;;;;;;;11.24;100.00;99266.66;4832347;29;20084;-95
2023/11/19 14:20:46;;;;;;;11.80;1.90;;;;;;;11.19;100.00;99265.53;4901150;29;20044;-96
2023/11/19 14:23:12;;;;;;;16.25;2.20;;;;;;;11.11;100.00;99291.06;4879469;29;20048;-95
2023/11/19 14:25:38;;;;;;;12.02;1.90;;;;;;;10.98;100.00;99286.34;4888326;29;20040;-96
2023/11/19 14:28:04;;;;;;;5.25;1.27;;;;;;;10.76;100.00;99259.72;4877562;29;20141;-96
2023/11/19 14:30:41;;;;;;;8.98;1.55;;;;;;;10.76;100.00;99287.97;4882186;29;20521;-96
2023/11/19 14:34:11;;;;;;;8.85;1.70;;;;;;;10.61;100.00;99293.16;4868561;29;20064;-96
2023/11/19 14:36:55;;;;;;;9.30;1.42;;;;;;;10.59;100.00;99295.16;4871217;29;20081;-96
2023/11/19 14:44:03;;;;;;;21.13;3.67;;;;;;;10.56;100.00;99287.59;4854483;29;20033;-96
2023/11/19 14:48:03;;;;;;;18.40;2.83;;;;;;;10.66;100.00;99285.53;4857462;29;20056;-95
2023/11/19 14:50:40;;;;;;;24.60;3.92;;;;;;;10.70;100.00;99294.78;4861064;29;20141;-96
2023/11/19 15:03:56;;;;;;;23.65;3.58;;;;;;;10.71;100.00;99290.31;5637777;23;20052;-96
2023/11/19 15:07:10;;;;;;;30.42;5.30;;;;;;;10.71;100.00;99288.50;4916324;29;20040;-96
2023/11/19 15:09:36;;;;;;;23.50;3.92;;;;;;;10.72;100.00;99299.91;4891833;29;20043;-96
2023/11/19 15:12:03;;;;;;;29.13;4.70;;;;;;;10.75;100.00;99304.84;4901375;29;20040;-95
2023/11/19 15:14:31;;;;;;;22.08;4.15;;;;;;;10.76;100.00;99320.53;4907894;29;20406;-96
2023/11/19 15:17:23;;;;;;;27.88;3.70;;;;;;;10.75;100.00;99325.97;4881244;29;20032;-96
2023/11/19 15:19:52;;;;;;;19.48;3.05;;;;;;;10.67;100.00;99329.50;4892660;29;20044;-96
2023/11/19 15:22:18;;;;;;;23.35;3.83;;;;;;;10.59;100.00;99343.53;4908470;29;20075;-96
2023/11/19 15:24:50;;;;;;;20.48;3.30;;;;;;;10.54;100.00;99341.41;4886601;29;20045;-96
2023/11/19 15:27:16;;;;;;;21.77;3.33;;;;;;;10.58;100.00;99346.34;4895991;29;20047;-95
2023/11/19 15:29:58;;;;;;;21.40;3.50;;;;;;;10.63;100.00;99342.22;4881294;29;20100;-96
2023/11/19 15:32:42;;;;;;;24.58;3.72;;;;;;;10.52;100.00;99332.84;4894781;29;20053;-96
2023/11/19 15:35:12;;;;;;;14.40;3.65;;;;;;;10.51;100.00;99335.66;4902121;29;20044;-96
2023/11/19 15:41:00;;;;;;;22.73;3.83;;;;;;;10.53;100.00;99344.22;4917917;28;20033;-96
2023/11/19 15:43:54;;;;;;;14.30;3.20;;;;;;;10.52;100.00;99347.88;4896040;29;20048;-96
2023/11/19 15:47:03;;;;;;;;;;;;;;;;;;;;;
2023/11/19 15:52:52;;;;;;;29.92;4.43;;;;;;;10.46;100.00;99346.75;4874361;29;20038;-96
2023/11/19 15:58:08;;;;;;;25.08;4.13;;;;;;;10.42;100.00;99351.50;5176021;23;20059;-96
2023/11/19 16:00:49;;;;;;;21.17;4.38;;;;;;;10.45;100.00;99360.91;4931133;29;20470;-96
2023/11/19 16:03:20;;;;;;;19.20;2.97;;;;;;;10.35;100.00;99358.44;4910027;29;20038;-96
2023/11/19 16:06:08;;;;;;;26.33;3.60;;;;;;;10.39;100.00;99367.72;4917819;28;20040;-96
2023/11/19 16:08:34;;;;;;;26.17;3.13;;;;;;;10.35;100.00;99392.00;4897790;29;20047;-96
2023/11/19 16:11:03;;;;;;;28.75;4.60;;;;;;;10.32;100.00;99387.84;4910733;29;20035;-96
2023/11/19 16:13:30;;;;;;;26.45;4.03;;;;;;;10.26;100.00;99386.72;4913146;29;20031;-96
2023/11/19 16:20:51;;;;;;;13.02;2.67;;;;;;;10.13;100.00;99376.66;4937406;29;20035;-96
2023/11/19 16:27:32;;;;;;;22.48;3.42;;;;;;;9.99;100.00;99380.81;4948441;29;20107;-96
2023/11/19 16:29:59;;;;;;;20.38;3.58;;;;;;;9.95;100.00;99371.59;4901210;29;20147;-96
2023/11/19 16:32:29;;;;;;;25.25;3.83;;;;;;;9.95;100.00;99382.16;4915135;29;20036;-96
2023/11/19 16:34:58;;;;;;;26.80;4.28;;;;;;;9.97;100.00;99385.44;4904202;29;20047;-96
2023/11/19 16:37:26;;;;;;;26.73;4.50;;;;;;;9.90;100.00;99379.19;4916099;29;20028;-96
2023/11/19 16:39:55;;;;;;;17.77;3.63;;;;;;;9.95;100.00;99384.78;4943549;28;20083;-96